Bad Gandersheim Airport EDVA

Flugplatz Daten

Name: Bad Gandersheim Airport

Ident: EDVA

Lat: 51,85416794

Long: 10,02555561

Platzhöhe: 791 ft

IataCode:

City: Bad Gandersheim

Metar

2015/11/26 00:00
CYDA 260000Z 00000KT 20SM OVC050 M14/M15 A3008 RMK SC8 CLIMAT -13.6/-18.1/0.0 STN OPEN FOR MEDVAC SLP225

Taf

Gewünschte Webcam nicht vorhanden? Dann fügen Sie eine hinzu. Sie wird dann so schnell wie möglich freigeschaltet
Url: Title: